sensor_id;sensor_type;location;lat;lon;timestamp;P1;durP1;ratioP1;P2;durP2;ratioP2
21569;SDS011;57598;50.888;4.746;2024-02-26T02:55:16;214.85;;;200.05;;
21569;SDS011;57598;50.888;4.746;2024-02-26T02:57:44;195.93;;;182.00;;
21569;SDS011;57598;50.888;4.746;2024-02-26T03:00:12;201.15;;;186.00;;
21569;SDS011;57598;50.888;4.746;2024-02-26T03:02:39;197.63;;;183.50;;
21569;SDS011;57598;50.888;4.746;2024-02-26T03:05:08;209.32;;;194.75;;
21569;SDS011;57598;50.888;4.746;2024-02-26T03:07:36;238.20;;;222.30;;
21569;SDS011;57598;50.888;4.746;2024-02-26T03:10:03;218.88;;;203.45;;
21569;SDS011;57598;50.888;4.746;2024-02-26T03:12:33;221.95;;;206.38;;
21569;SDS011;57598;50.888;4.746;2024-02-26T03:15:01;227.48;;;211.20;;
21569;SDS011;57598;50.888;4.746;2024-02-26T03:17:29;229.13;;;212.88;;
21569;SDS011;57598;50.888;4.746;2024-02-26T03:19:59;224.77;;;208.57;;
21569;SDS011;57598;50.888;4.746;2024-02-26T03:22:30;218.88;;;202.85;;
21569;SDS011;57598;50.888;4.746;2024-02-26T03:24:59;207.70;;;192.00;;
21569;SDS011;57598;50.888;4.746;2024-02-26T03:27:27;209.68;;;193.85;;
21569;SDS011;57598;50.888;4.746;2024-02-26T03:29:56;198.77;;;183.38;;
21569;SDS011;57598;50.888;4.746;2024-02-26T03:32:23;200.40;;;184.90;;
21569;SDS011;57598;50.888;4.746;2024-02-26T03:34:51;185.85;;;171.15;;
21569;SDS011;57598;50.888;4.746;2024-02-26T03:37:19;194.95;;;179.85;;
21569;SDS011;57598;50.888;4.746;2024-02-26T03:39:47;188.93;;;174.10;;
21569;SDS011;57598;50.888;4.746;2024-02-26T03:42:14;187.30;;;171.98;;
21569;SDS011;57598;50.888;4.746;2024-02-26T03:44:43;158.55;;;145.27;;
21569;SDS011;57598;50.888;4.746;2024-02-26T03:47:12;147.55;;;135.15;;
21569;SDS011;57598;50.888;4.746;2024-02-26T03:49:45;147.85;;;135.55;;
21569;SDS011;57598;50.888;4.746;2024-02-26T03:52:15;146.10;;;133.80;;
21569;SDS011;57598;50.888;4.746;2024-02-26T03:54:43;142.30;;;130.32;;
21569;SDS011;57598;50.888;4.746;2024-02-26T03:57:10;144.65;;;132.68;;
21569;SDS011;57598;50.888;4.746;2024-02-26T03:59:38;148.50;;;136.07;;
21569;SDS011;57598;50.888;4.746;2024-02-26T04:02:06;142.48;;;130.57;;
21569;SDS011;57598;50.888;4.746;2024-02-26T04:04:36;139.32;;;127.43;;
21569;SDS011;57598;50.888;4.746;2024-02-26T04:07:04;146.02;;;134.00;;
21569;SDS011;57598;50.888;4.746;2024-02-26T04:09:31;145.90;;;133.85;;
21569;SDS011;57598;50.888;4.746;2024-02-26T04:11:59;144.77;;;132.60;;
21569;SDS011;57598;50.888;4.746;2024-02-26T04:14:27;146.38;;;134.18;;
21569;SDS011;57598;50.888;4.746;2024-02-26T04:16:54;147.98;;;135.38;;
21569;SDS011;57598;50.888;4.746;2024-02-26T04:19:22;166.05;;;152.55;;
21569;SDS011;57598;50.888;4.746;2024-02-26T04:21:54;178.50;;;164.45;;
21569;SDS011;57598;50.888;4.746;2024-02-26T04:24:22;176.32;;;161.55;;
21569;SDS011;57598;50.888;4.746;2024-02-26T04:26:50;171.10;;;157.60;;
21569;SDS011;57598;50.888;4.746;2024-02-26T04:29:17;167.57;;;153.88;;
21569;SDS011;57598;50.888;4.746;2024-02-26T04:31:45;163.40;;;149.88;;
21569;SDS011;57598;50.888;4.746;2024-02-26T04:34:13;163.80;;;150.60;;
21569;SDS011;57598;50.888;4.746;2024-02-26T04:36:41;166.45;;;153.02;;
21569;SDS011;57598;50.888;4.746;2024-02-26T04:39:10;165.77;;;152.27;;
21569;SDS011;57598;50.888;4.746;2024-02-26T04:41:38;169.05;;;155.27;;
21569;SDS011;57598;50.888;4.746;2024-02-26T04:44:06;164.63;;;151.38;;
21569;SDS011;57598;50.888;4.746;2024-02-26T04:46:37;165.18;;;151.82;;
21569;SDS011;57598;50.888;4.746;2024-02-26T04:49:05;168.82;;;155.32;;
21569;SDS011;57598;50.888;4.746;2024-02-26T04:51:33;166.00;;;152.73;;
21569;SDS011;57598;50.888;4.746;2024-02-26T04:54:01;163.27;;;150.40;;
21569;SDS011;57598;50.888;4.746;2024-02-26T04:56:41;167.45;;;154.20;;
21569;SDS011;57598;50.888;4.746;2024-02-26T05:01:40;172.05;;;158.93;;
21569;SDS011;57598;50.888;4.746;2024-02-26T05:04:08;177.68;;;164.30;;
21569;SDS011;57598;50.888;4.746;2024-02-26T05:06:36;183.85;;;170.18;;
21569;SDS011;57598;50.888;4.746;2024-02-26T05:09:05;175.35;;;161.93;;
21569;SDS011;57598;50.888;4.746;2024-02-26T05:11:35;172.48;;;159.38;;
21569;SDS011;57598;50.888;4.746;2024-02-26T05:14:04;174.37;;;161.20;;
21569;SDS011;57598;50.888;4.746;2024-02-26T05:16:31;193.43;;;178.77;;
21569;SDS011;57598;50.888;4.746;2024-02-26T05:19:02;186.77;;;173.18;;
21569;SDS011;57598;50.888;4.746;2024-02-26T05:21:31;179.05;;;165.57;;
21569;SDS011;57598;50.888;4.746;2024-02-26T05:23:59;173.77;;;161.07;;
21569;SDS011;57598;50.888;4.746;2024-02-26T05:26:27;170.90;;;158.23;;
21569;SDS011;57598;50.888;4.746;2024-02-26T05:31:57;174.13;;;161.32;;
21569;SDS011;57598;50.888;4.746;2024-02-26T05:34:25;187.30;;;173.68;;
21569;SDS011;57598;50.888;4.746;2024-02-26T05:36:55;181.75;;;168.32;;
21569;SDS011;57598;50.888;4.746;2024-02-26T05:39:23;190.20;;;176.77;;
21569;SDS011;57598;50.888;4.746;2024-02-26T05:41:51;175.32;;;162.63;;
21569;SDS011;57598;50.888;4.746;2024-02-26T05:44:19;175.85;;;163.15;;
21569;SDS011;57598;50.888;4.746;2024-02-26T05:47:03;179.45;;;166.38;;
21569;SDS011;57598;50.888;4.746;2024-02-26T05:49:31;180.30;;;166.80;;
21569;SDS011;57598;50.888;4.746;2024-02-26T05:52:09;174.68;;;161.82;;
21569;SDS011;57598;50.888;4.746;2024-02-26T05:55:03;176.93;;;163.85;;
21569;SDS011;57598;50.888;4.746;2024-02-26T05:58:08;170.88;;;158.27;;
21569;SDS011;57598;50.888;4.746;2024-02-26T06:15:44;189.80;;;175.97;;
21569;SDS011;57598;50.888;4.746;2024-02-26T06:18:53;182.55;;;169.35;;
21569;SDS011;57598;50.888;4.746;2024-02-26T06:21:35;178.85;;;165.88;;
21569;SDS011;57598;50.888;4.746;2024-02-26T06:24:03;186.65;;;172.88;;
21569;SDS011;57598;50.888;4.746;2024-02-26T06:26:31;187.82;;;174.35;;
21569;SDS011;57598;50.888;4.746;2024-02-26T06:28:59;201.77;;;187.77;;
21569;SDS011;57598;50.888;4.746;2024-02-26T06:31:28;196.63;;;183.10;;
21569;SDS011;57598;50.888;4.746;2024-02-26T06:33:56;194.60;;;181.38;;
21569;SDS011;57598;50.888;4.746;2024-02-26T06:36:24;204.07;;;190.23;;
21569;SDS011;57598;50.888;4.746;2024-02-26T06:38:53;195.05;;;181.95;;
21569;SDS011;57598;50.888;4.746;2024-02-26T06:41:22;189.02;;;175.90;;
21569;SDS011;57598;50.888;4.746;2024-02-26T06:43:52;188.93;;;175.77;;
21569;SDS011;57598;50.888;4.746;2024-02-26T06:46:20;205.20;;;191.10;;
21569;SDS011;57598;50.888;4.746;2024-02-26T06:48:50;190.23;;;177.25;;
21569;SDS011;57598;50.888;4.746;2024-02-26T06:51:18;198.38;;;185.13;;
21569;SDS011;57598;50.888;4.746;2024-02-26T06:53:46;204.90;;;190.73;;
21569;SDS011;57598;50.888;4.746;2024-02-26T06:56:15;200.75;;;187.15;;
21569;SDS011;57598;50.888;4.746;2024-02-26T06:58:43;206.10;;;192.05;;
21569;SDS011;57598;50.888;4.746;2024-02-26T07:01:11;196.40;;;182.88;;
21569;SDS011;57598;50.888;4.746;2024-02-26T07:03:40;177.63;;;165.43;;
21569;SDS011;57598;50.888;4.746;2024-02-26T07:06:09;172.48;;;160.13;;
21569;SDS011;57598;50.888;4.746;2024-02-26T07:08:38;158.27;;;146.35;;
21569;SDS011;57598;50.888;4.746;2024-02-26T07:11:07;160.27;;;148.73;;
21569;SDS011;57598;50.888;4.746;2024-02-26T07:13:38;161.10;;;149.50;;
21569;SDS011;57598;50.888;4.746;2024-02-26T07:16:07;167.82;;;155.63;;
21569;SDS011;57598;50.888;4.746;2024-02-26T07:18:39;166.48;;;154.55;;
21569;SDS011;57598;50.888;4.746;2024-02-26T07:21:11;169.60;;;157.38;;
21569;SDS011;57598;50.888;4.746;2024-02-26T07:23:39;180.48;;;167.85;;
21569;SDS011;57598;50.888;4.746;2024-02-26T07:26:08;176.68;;;164.07;;
21569;SDS011;57598;50.888;4.746;2024-02-26T07:28:37;176.90;;;164.18;;
21569;SDS011;57598;50.888;4.746;2024-02-26T07:31:05;178.93;;;166.10;;
21569;SDS011;57598;50.888;4.746;2024-02-26T07:33:34;172.10;;;160.05;;
21569;SDS011;57598;50.888;4.746;2024-02-26T07:36:03;162.10;;;150.90;;
21569;SDS011;57598;50.888;4.746;2024-02-26T07:38:35;169.52;;;157.43;;
21569;SDS011;57598;50.888;4.746;2024-02-26T07:41:03;180.02;;;166.20;;
21569;SDS011;57598;50.888;4.746;2024-02-26T07:43:31;179.18;;;166.40;;
21569;SDS011;57598;50.888;4.746;2024-02-26T07:45:59;189.05;;;176.00;;
21569;SDS011;57598;50.888;4.746;2024-02-26T07:48:27;197.82;;;184.15;;
21569;SDS011;57598;50.888;4.746;2024-02-26T07:50:56;188.45;;;175.60;;
21569;SDS011;57598;50.888;4.746;2024-02-26T07:53:25;177.95;;;165.45;;
21569;SDS011;57598;50.888;4.746;2024-02-26T07:55:59;180.63;;;168.18;;
21569;SDS011;57598;50.888;4.746;2024-02-26T07:58:35;189.23;;;176.10;;
21569;SDS011;57598;50.888;4.746;2024-02-26T08:01:03;185.80;;;173.27;;
21569;SDS011;57598;50.888;4.746;2024-02-26T08:03:31;170.25;;;158.43;;
21569;SDS011;57598;50.888;4.746;2024-02-26T08:05:59;179.32;;;167.02;;
21569;SDS011;57598;50.888;4.746;2024-02-26T08:08:27;181.02;;;168.32;;
21569;SDS011;57598;50.888;4.746;2024-02-26T08:10:59;182.43;;;169.63;;
21569;SDS011;57598;50.888;4.746;2024-02-26T08:13:28;186.32;;;173.27;;
21569;SDS011;57598;50.888;4.746;2024-02-26T08:15:56;186.60;;;173.45;;
21569;SDS011;57598;50.888;4.746;2024-02-26T08:18:27;183.52;;;170.23;;
21569;SDS011;57598;50.888;4.746;2024-02-26T08:20:55;182.23;;;169.32;;
21569;SDS011;57598;50.888;4.746;2024-02-26T08:23:24;191.35;;;178.43;;
21569;SDS011;57598;50.888;4.746;2024-02-26T08:25:52;184.45;;;171.73;;
21569;SDS011;57598;50.888;4.746;2024-02-26T08:28:27;187.20;;;173.90;;
21569;SDS011;57598;50.888;4.746;2024-02-26T08:30:55;186.93;;;174.13;;
21569;SDS011;57598;50.888;4.746;2024-02-26T08:33:24;184.02;;;171.27;;
21569;SDS011;57598;50.888;4.746;2024-02-26T08:35:53;173.57;;;161.00;;
21569;SDS011;57598;50.888;4.746;2024-02-26T08:38:21;162.90;;;151.25;;
21569;SDS011;57598;50.888;4.746;2024-02-26T08:40:51;171.70;;;159.38;;
21569;SDS011;57598;50.888;4.746;2024-02-26T08:43:19;168.02;;;156.00;;
21569;SDS011;57598;50.888;4.746;2024-02-26T08:45:50;161.23;;;149.35;;
21569;SDS011;57598;50.888;4.746;2024-02-26T08:48:19;160.93;;;148.80;;
21569;SDS011;57598;50.888;4.746;2024-02-26T08:50:48;168.20;;;156.20;;
21569;SDS011;57598;50.888;4.746;2024-02-26T08:53:16;159.20;;;147.23;;
21569;SDS011;57598;50.888;4.746;2024-02-26T08:55:44;150.07;;;138.57;;
21569;SDS011;57598;50.888;4.746;2024-02-26T08:58:13;144.50;;;133.70;;
21569;SDS011;57598;50.888;4.746;2024-02-26T09:00:42;142.07;;;131.27;;
21569;SDS011;57598;50.888;4.746;2024-02-26T09:03:12;151.00;;;139.23;;
21569;SDS011;57598;50.888;4.746;2024-02-26T09:05:40;142.68;;;131.43;;
21569;SDS011;57598;50.888;4.746;2024-02-26T09:08:09;144.50;;;133.00;;
21569;SDS011;57598;50.888;4.746;2024-02-26T09:10:37;142.07;;;130.95;;
21569;SDS011;57598;50.888;4.746;2024-02-26T09:13:06;141.05;;;130.32;;
21569;SDS011;57598;50.888;4.746;2024-02-26T09:15:33;137.20;;;126.35;;
21569;SDS011;57598;50.888;4.746;2024-02-26T09:18:01;138.43;;;127.85;;
21569;SDS011;57598;50.888;4.746;2024-02-26T09:20:31;142.27;;;131.48;;
21569;SDS011;57598;50.888;4.746;2024-02-26T09:23:06;137.70;;;126.50;;
21569;SDS011;57598;50.888;4.746;2024-02-26T09:25:34;132.85;;;122.38;;
21569;SDS011;57598;50.888;4.746;2024-02-26T09:28:04;142.27;;;131.32;;
21569;SDS011;57598;50.888;4.746;2024-02-26T09:30:33;147.45;;;136.18;;
21569;SDS011;57598;50.888;4.746;2024-02-26T09:33:02;138.70;;;127.55;;
21569;SDS011;57598;50.888;4.746;2024-02-26T09:35:40;133.65;;;123.15;;
21569;SDS011;57598;50.888;4.746;2024-02-26T09:38:09;140.15;;;128.80;;
21569;SDS011;57598;50.888;4.746;2024-02-26T09:40:37;132.73;;;122.15;;
21569;SDS011;57598;50.888;4.746;2024-02-26T09:43:05;133.80;;;123.05;;
21569;SDS011;57598;50.888;4.746;2024-02-26T09:45:33;131.45;;;121.00;;
21569;SDS011;57598;50.888;4.746;2024-02-26T09:48:02;129.30;;;119.38;;
21569;SDS011;57598;50.888;4.746;2024-02-26T09:50:32;124.70;;;114.70;;
21569;SDS011;57598;50.888;4.746;2024-02-26T09:53:04;120.00;;;110.40;;
21569;SDS011;57598;50.888;4.746;2024-02-26T09:55:35;120.05;;;110.25;;
21569;SDS011;57598;50.888;4.746;2024-02-26T09:58:04;114.25;;;104.90;;
21569;SDS011;57598;50.888;4.746;2024-02-26T10:00:33;110.85;;;101.78;;
21569;SDS011;57598;50.888;4.746;2024-02-26T10:03:10;113.63;;;104.43;;
21569;SDS011;57598;50.888;4.746;2024-02-26T10:05:41;118.35;;;108.57;;
21569;SDS011;57598;50.888;4.746;2024-02-26T10:08:14;113.35;;;103.38;;
21569;SDS011;57598;50.888;4.746;2024-02-26T10:10:50;112.85;;;102.57;;
21569;SDS011;57598;50.888;4.746;2024-02-26T10:13:18;108.57;;;98.03;;
21569;SDS011;57598;50.888;4.746;2024-02-26T10:15:48;101.93;;;93.18;;
21569;SDS011;57598;50.888;4.746;2024-02-26T10:18:16;101.22;;;91.50;;
21569;SDS011;57598;50.888;4.746;2024-02-26T10:20:52;105.95;;;97.00;;
21569;SDS011;57598;50.888;4.746;2024-02-26T10:23:28;105.47;;;96.57;;
21569;SDS011;57598;50.888;4.746;2024-02-26T10:25:57;109.43;;;100.03;;
21569;SDS011;57598;50.888;4.746;2024-02-26T10:28:26;104.57;;;95.80;;
21569;SDS011;57598;50.888;4.746;2024-02-26T10:30:59;105.25;;;96.35;;
21569;SDS011;57598;50.888;4.746;2024-02-26T10:33:29;105.20;;;96.38;;
21569;SDS011;57598;50.888;4.746;2024-02-26T10:35:57;107.50;;;98.70;;
21569;SDS011;57598;50.888;4.746;2024-02-26T10:43:59;110.03;;;100.82;;
21569;SDS011;57598;50.888;4.746;2024-02-26T10:46:38;104.80;;;95.97;;
21569;SDS011;57598;50.888;4.746;2024-02-26T10:49:37;115.18;;;105.95;;
21569;SDS011;57598;50.888;4.746;2024-02-26T10:55:46;105.32;;;96.40;;
21569;SDS011;57598;50.888;4.746;2024-02-26T10:58:36;103.43;;;94.50;;
21569;SDS011;57598;50.888;4.746;2024-02-26T11:07:36;105.18;;;96.18;;
21569;SDS011;57598;50.888;4.746;2024-02-26T11:10:32;100.90;;;92.20;;
21569;SDS011;57598;50.888;4.746;2024-02-26T11:13:35;97.82;;;89.13;;
21569;SDS011;57598;50.888;4.746;2024-02-26T11:16:35;99.57;;;90.57;;
21569;SDS011;57598;50.888;4.746;2024-02-26T11:22:23;95.80;;;87.20;;
21569;SDS011;57598;50.888;4.746;2024-02-26T11:25:33;101.57;;;92.85;;
21569;SDS011;57598;50.888;4.746;2024-02-26T11:40:15;94.43;;;86.13;;
21569;SDS011;57598;50.888;4.746;2024-02-26T11:55:11;86.40;;;78.78;;
21569;SDS011;57598;50.888;4.746;2024-02-26T11:57:41;93.55;;;85.75;;
21569;SDS011;57598;50.888;4.746;2024-02-26T12:00:13;84.90;;;77.40;;
21569;SDS011;57598;50.888;4.746;2024-02-26T12:02:50;93.07;;;84.85;;
21569;SDS011;57598;50.888;4.746;2024-02-26T12:05:23;93.70;;;85.93;;
21569;SDS011;57598;50.888;4.746;2024-02-26T12:07:53;94.20;;;85.95;;
21569;SDS011;57598;50.888;4.746;2024-02-26T12:10:26;91.28;;;83.22;;
21569;SDS011;57598;50.888;4.746;2024-02-26T12:12:59;91.90;;;84.00;;
21569;SDS011;57598;50.888;4.746;2024-02-26T12:15:31;89.15;;;81.32;;
21569;SDS011;57598;50.888;4.746;2024-02-26T12:20:27;87.93;;;80.22;;
21569;SDS011;57598;50.888;4.746;2024-02-26T12:22:56;91.85;;;84.05;;
21569;SDS011;57598;50.888;4.746;2024-02-26T12:25:27;86.68;;;78.82;;
21569;SDS011;57598;50.888;4.746;2024-02-26T12:27:56;85.93;;;78.25;;
21569;SDS011;57598;50.888;4.746;2024-02-26T12:30:25;89.88;;;82.18;;
21569;SDS011;57598;50.888;4.746;2024-02-26T12:32:56;89.20;;;81.30;;
21569;SDS011;57598;50.888;4.746;2024-02-26T12:35:25;86.13;;;78.53;;
21569;SDS011;57598;50.888;4.746;2024-02-26T12:37:53;85.88;;;78.50;;
21569;SDS011;57598;50.888;4.746;2024-02-26T12:40:21;85.63;;;77.85;;
21569;SDS011;57598;50.888;4.746;2024-02-26T12:42:51;86.90;;;79.25;;
21569;SDS011;57598;50.888;4.746;2024-02-26T12:45:20;86.13;;;78.45;;
21569;SDS011;57598;50.888;4.746;2024-02-26T12:47:49;90.80;;;82.88;;
21569;SDS011;57598;50.888;4.746;2024-02-26T12:50:17;91.78;;;83.35;;
21569;SDS011;57598;50.888;4.746;2024-02-26T12:52:46;90.88;;;83.20;;
21569;SDS011;57598;50.888;4.746;2024-02-26T12:55:14;85.88;;;78.38;;
21569;SDS011;57598;50.888;4.746;2024-02-26T12:57:42;88.70;;;80.82;;
21569;SDS011;57598;50.888;4.746;2024-02-26T13:00:14;85.97;;;78.43;;
21569;SDS011;57598;50.888;4.746;2024-02-26T13:02:43;85.60;;;78.18;;
21569;SDS011;57598;50.888;4.746;2024-02-26T13:05:13;86.40;;;78.82;;
21569;SDS011;57598;50.888;4.746;2024-02-26T13:07:41;84.03;;;76.70;;
21569;SDS011;57598;50.888;4.746;2024-02-26T13:10:10;83.45;;;76.05;;
21569;SDS011;57598;50.888;4.746;2024-02-26T13:12:42;82.72;;;75.35;;
21569;SDS011;57598;50.888;4.746;2024-02-26T13:15:15;89.45;;;81.80;;
21569;SDS011;57598;50.888;4.746;2024-02-26T13:17:43;85.35;;;77.78;;
21569;SDS011;57598;50.888;4.746;2024-02-26T13:20:24;83.03;;;75.63;;
21569;SDS011;57598;50.888;4.746;2024-02-26T13:22:59;86.57;;;78.72;;
21569;SDS011;57598;50.888;4.746;2024-02-26T13:25:29;87.13;;;79.72;;
21569;SDS011;57598;50.888;4.746;2024-02-26T13:37:26;84.60;;;77.00;;
21569;SDS011;57598;50.888;4.746;2024-02-26T13:39:54;83.55;;;75.97;;
21569;SDS011;57598;50.888;4.746;2024-02-26T13:42:22;83.28;;;75.72;;
21569;SDS011;57598;50.888;4.746;2024-02-26T13:44:50;85.10;;;77.50;;
21569;SDS011;57598;50.888;4.746;2024-02-26T13:47:18;81.20;;;73.70;;
21569;SDS011;57598;50.888;4.746;2024-02-26T13:49:47;83.30;;;75.57;;
21569;SDS011;57598;50.888;4.746;2024-02-26T13:52:17;81.73;;;74.27;;
21569;SDS011;57598;50.888;4.746;2024-02-26T13:54:47;81.88;;;74.38;;
21569;SDS011;57598;50.888;4.746;2024-02-26T13:57:16;86.75;;;79.05;;
21569;SDS011;57598;50.888;4.746;2024-02-26T13:59:45;84.55;;;76.75;;
21569;SDS011;57598;50.888;4.746;2024-02-26T14:02:13;84.00;;;76.30;;
21569;SDS011;57598;50.888;4.746;2024-02-26T14:04:42;90.07;;;81.97;;
21569;SDS011;57598;50.888;4.746;2024-02-26T14:07:11;86.75;;;78.82;;
21569;SDS011;57598;50.888;4.746;2024-02-26T14:09:39;86.57;;;78.88;;
21569;SDS011;57598;50.888;4.746;2024-02-26T14:12:11;89.97;;;82.35;;
21569;SDS011;57598;50.888;4.746;2024-02-26T14:14:40;93.35;;;85.35;;
21569;SDS011;57598;50.888;4.746;2024-02-26T14:17:14;96.65;;;88.38;;
21569;SDS011;57598;50.888;4.746;2024-02-26T14:19:42;90.93;;;83.10;;
21569;SDS011;57598;50.888;4.746;2024-02-26T14:22:10;96.43;;;87.88;;
21569;SDS011;57598;50.888;4.746;2024-02-26T14:24:38;92.43;;;84.28;;
21569;SDS011;57598;50.888;4.746;2024-02-26T14:27:09;93.45;;;85.75;;
21569;SDS011;57598;50.888;4.746;2024-02-26T14:29:41;92.32;;;84.43;;
21569;SDS011;57598;50.888;4.746;2024-02-26T14:32:09;95.00;;;86.97;;
21569;SDS011;57598;50.888;4.746;2024-02-26T14:34:37;110.85;;;101.53;;
21569;SDS011;57598;50.888;4.746;2024-02-26T14:37:04;109.13;;;99.93;;
21569;SDS011;57598;50.888;4.746;2024-02-26T14:39:32;107.28;;;98.35;;
21569;SDS011;57598;50.888;4.746;2024-02-26T14:42:01;116.07;;;106.18;;
21569;SDS011;57598;50.888;4.746;2024-02-26T14:44:30;116.07;;;106.35;;
21569;SDS011;57598;50.888;4.746;2024-02-26T14:46:58;112.85;;;103.75;;
21569;SDS011;57598;50.888;4.746;2024-02-26T14:49:26;113.80;;;104.80;;
21569;SDS011;57598;50.888;4.746;2024-02-26T14:51:56;118.50;;;109.28;;
21569;SDS011;57598;50.888;4.746;2024-02-26T14:54:24;110.72;;;101.97;;
21569;SDS011;57598;50.888;4.746;2024-02-26T14:56:53;112.03;;;102.63;;
21569;SDS011;57598;50.888;4.746;2024-02-26T14:59:21;113.20;;;104.18;;
21569;SDS011;57598;50.888;4.746;2024-02-26T15:01:50;111.30;;;102.10;;
21569;SDS011;57598;50.888;4.746;2024-02-26T15:04:18;103.63;;;94.95;;
21569;SDS011;57598;50.888;4.746;2024-02-26T15:09:47;104.38;;;95.78;;
21569;SDS011;57598;50.888;4.746;2024-02-26T15:15:25;110.53;;;101.50;;
21569;SDS011;57598;50.888;4.746;2024-02-26T15:17:55;109.50;;;100.65;;
21569;SDS011;57598;50.888;4.746;2024-02-26T15:20:22;106.80;;;97.93;;
21569;SDS011;57598;50.888;4.746;2024-02-26T15:22:50;103.45;;;94.68;;
21569;SDS011;57598;50.888;4.746;2024-02-26T15:25:18;103.18;;;94.65;;
21569;SDS011;57598;50.888;4.746;2024-02-26T15:27:46;102.60;;;93.93;;
21569;SDS011;57598;50.888;4.746;2024-02-26T15:30:14;118.10;;;108.35;;
21569;SDS011;57598;50.888;4.746;2024-02-26T15:32:42;111.10;;;100.68;;
21569;SDS011;57598;50.888;4.746;2024-02-26T15:35:11;112.88;;;103.45;;
21569;SDS011;57598;50.888;4.746;2024-02-26T15:37:39;111.80;;;102.72;;
21569;SDS011;57598;50.888;4.746;2024-02-26T15:40:08;104.28;;;95.43;;
21569;SDS011;57598;50.888;4.746;2024-02-26T15:42:36;113.13;;;103.68;;
21569;SDS011;57598;50.888;4.746;2024-02-26T15:48:08;108.40;;;99.35;;
21569;SDS011;57598;50.888;4.746;2024-02-26T15:53:57;101.88;;;92.88;;
21569;SDS011;57598;50.888;4.746;2024-02-26T15:56:53;100.78;;;92.03;;
21569;SDS011;57598;50.888;4.746;2024-02-26T15:59:30;101.68;;;92.47;;
21569;SDS011;57598;50.888;4.746;2024-02-26T16:02:17;98.85;;;90.25;;
21569;SDS011;57598;50.888;4.746;2024-02-26T16:07:45;102.68;;;94.03;;
21569;SDS011;57598;50.888;4.746;2024-02-26T16:10:17;102.22;;;93.50;;
21569;SDS011;57598;50.888;4.746;2024-02-26T16:12:46;98.43;;;89.72;;
21569;SDS011;57598;50.888;4.746;2024-02-26T16:15:14;134.43;;;123.45;;
21569;SDS011;57598;50.888;4.746;2024-02-26T16:17:46;127.85;;;117.35;;
21569;SDS011;57598;50.888;4.746;2024-02-26T16:20:18;99.72;;;90.88;;
21569;SDS011;57598;50.888;4.746;2024-02-26T16:22:46;98.30;;;89.88;;
21569;SDS011;57598;50.888;4.746;2024-02-26T16:25:14;120.65;;;110.40;;
21569;SDS011;57598;50.888;4.746;2024-02-26T16:27:43;94.95;;;86.45;;
21569;SDS011;57598;50.888;4.746;2024-02-26T16:30:13;100.82;;;91.82;;
21569;SDS011;57598;50.888;4.746;2024-02-26T16:32:40;95.07;;;86.47;;
21569;SDS011;57598;50.888;4.746;2024-02-26T16:35:08;94.97;;;86.53;;
21569;SDS011;57598;50.888;4.746;2024-02-26T16:37:37;94.85;;;86.35;;
21569;SDS011;57598;50.888;4.746;2024-02-26T16:40:05;97.88;;;89.28;;
21569;SDS011;57598;50.888;4.746;2024-02-26T16:42:34;134.43;;;123.43;;
21569;SDS011;57598;50.888;4.746;2024-02-26T16:45:04;134.00;;;123.20;;
21569;SDS011;57598;50.888;4.746;2024-02-26T16:47:32;104.88;;;95.90;;
21569;SDS011;57598;50.888;4.746;2024-02-26T16:50:01;139.13;;;127.93;;
21569;SDS011;57598;50.888;4.746;2024-02-26T16:52:32;146.10;;;133.93;;
21569;SDS011;57598;50.888;4.746;2024-02-26T16:55:00;168.98;;;156.02;;
21569;SDS011;57598;50.888;4.746;2024-02-26T16:57:34;162.90;;;149.07;;
21569;SDS011;57598;50.888;4.746;2024-02-26T17:00:01;156.57;;;144.10;;
21569;SDS011;57598;50.888;4.746;2024-02-26T17:02:34;152.68;;;140.57;;
21569;SDS011;57598;50.888;4.746;2024-02-26T17:05:02;154.45;;;141.55;;
21569;SDS011;57598;50.888;4.746;2024-02-26T17:07:29;134.80;;;124.05;;
21569;SDS011;57598;50.888;4.746;2024-02-26T17:09:57;186.60;;;173.40;;
21569;SDS011;57598;50.888;4.746;2024-02-26T17:12:25;207.27;;;193.15;;
21569;SDS011;57598;50.888;4.746;2024-02-26T17:14:52;209.40;;;194.80;;
21569;SDS011;57598;50.888;4.746;2024-02-26T17:17:20;222.13;;;206.90;;
21569;SDS011;57598;50.888;4.746;2024-02-26T17:19:50;207.45;;;192.77;;
21569;SDS011;57598;50.888;4.746;2024-02-26T17:22:18;222.85;;;207.95;;
21569;SDS011;57598;50.888;4.746;2024-02-26T17:24:46;230.02;;;214.77;;
21569;SDS011;57598;50.888;4.746;2024-02-26T17:27:14;225.43;;;210.55;;
21569;SDS011;57598;50.888;4.746;2024-02-26T17:29:41;233.82;;;217.75;;
21569;SDS011;57598;50.888;4.746;2024-02-26T17:32:09;211.52;;;196.80;;
21569;SDS011;57598;50.888;4.746;2024-02-26T17:34:37;213.82;;;199.25;;
21569;SDS011;57598;50.888;4.746;2024-02-26T17:37:08;212.85;;;198.63;;
21569;SDS011;57598;50.888;4.746;2024-02-26T17:39:36;209.65;;;195.80;;
21569;SDS011;57598;50.888;4.746;2024-02-26T17:42:03;223.52;;;208.38;;
21569;SDS011;57598;50.888;4.746;2024-02-26T17:44:35;214.82;;;199.90;;
21569;SDS011;57598;50.888;4.746;2024-02-26T17:47:03;209.20;;;194.90;;
21569;SDS011;57598;50.888;4.746;2024-02-26T17:49:31;197.77;;;184.05;;
21569;SDS011;57598;50.888;4.746;2024-02-26T17:51:59;186.48;;;173.15;;
21569;SDS011;57598;50.888;4.746;2024-02-26T17:54:30;176.02;;;163.10;;
21569;SDS011;57598;50.888;4.746;2024-02-26T17:56:58;182.20;;;168.95;;
21569;SDS011;57598;50.888;4.746;2024-02-26T17:59:25;164.25;;;152.15;;
21569;SDS011;57598;50.888;4.746;2024-02-26T18:01:54;170.25;;;158.02;;
21569;SDS011;57598;50.888;4.746;2024-02-26T18:04:22;172.30;;;160.02;;
21569;SDS011;57598;50.888;4.746;2024-02-26T18:06:50;167.13;;;154.52;;
21569;SDS011;57598;50.888;4.746;2024-02-26T18:09:18;170.88;;;158.63;;
21569;SDS011;57598;50.888;4.746;2024-02-26T18:11:47;166.90;;;154.57;;
21569;SDS011;57598;50.888;4.746;2024-02-26T18:14:15;178.77;;;165.90;;
21569;SDS011;57598;50.888;4.746;2024-02-26T18:16:43;170.93;;;158.38;;
21569;SDS011;57598;50.888;4.746;2024-02-26T18:19:11;161.88;;;149.57;;
21569;SDS011;57598;50.888;4.746;2024-02-26T18:21:39;175.38;;;162.73;;
21569;SDS011;57598;50.888;4.746;2024-02-26T18:24:07;169.45;;;157.02;;
21569;SDS011;57598;50.888;4.746;2024-02-26T18:26:35;176.75;;;164.18;;
21569;SDS011;57598;50.888;4.746;2024-02-26T18:29:04;171.43;;;159.57;;
21569;SDS011;57598;50.888;4.746;2024-02-26T18:31:32;167.60;;;155.35;;
21569;SDS011;57598;50.888;4.746;2024-02-26T18:34:00;168.43;;;156.02;;
21569;SDS011;57598;50.888;4.746;2024-02-26T18:36:28;179.27;;;164.95;;
21569;SDS011;57598;50.888;4.746;2024-02-26T18:38:56;193.80;;;180.43;;
21569;SDS011;57598;50.888;4.746;2024-02-26T18:41:24;190.68;;;176.95;;
21569;SDS011;57598;50.888;4.746;2024-02-26T18:43:52;191.55;;;177.45;;
21569;SDS011;57598;50.888;4.746;2024-02-26T18:46:22;190.75;;;177.90;;